sensor_id;sensor_type;location;lat;lon;timestamp;temperature;humidity
76293;DHT22;67256;51.154;4.164;2023-11-18T00:01:15;10.00;93.70
76293;DHT22;67256;51.154;4.164;2023-11-18T00:03:42;10.00;93.80
76293;DHT22;67256;51.154;4.164;2023-11-18T00:06:08;9.90;93.80
76293;DHT22;67256;51.154;4.164;2023-11-18T00:08:34;10.00;93.90
76293;DHT22;67256;51.154;4.164;2023-11-18T00:11:00;10.00;94.00
76293;DHT22;67256;51.154;4.164;2023-11-18T00:13:25;9.90;93.90
76293;DHT22;67256;51.154;4.164;2023-11-18T00:15:54;10.00;93.90
76293;DHT22;67256;51.154;4.164;2023-11-18T00:18:20;9.90;93.90
76293;DHT22;67256;51.154;4.164;2023-11-18T00:20:46;9.90;93.90
76293;DHT22;67256;51.154;4.164;2023-11-18T00:23:12;10.00;93.70
76293;DHT22;67256;51.154;4.164;2023-11-18T00:25:38;10.00;93.80
76293;DHT22;67256;51.154;4.164;2023-11-18T00:28:06;10.00;93.70
76293;DHT22;67256;51.154;4.164;2023-11-18T00:30:34;10.00;93.60
76293;DHT22;67256;51.154;4.164;2023-11-18T00:33:00;10.00;93.60
76293;DHT22;67256;51.154;4.164;2023-11-18T00:35:26;10.00;93.50
76293;DHT22;67256;51.154;4.164;2023-11-18T00:37:52;10.00;93.60
76293;DHT22;67256;51.154;4.164;2023-11-18T00:40:17;10.00;93.60
76293;DHT22;67256;51.154;4.164;2023-11-18T00:42:44;10.10;93.50
76293;DHT22;67256;51.154;4.164;2023-11-18T00:45:11;10.00;93.40
76293;DHT22;67256;51.154;4.164;2023-11-18T00:47:38;10.10;93.40
76293;DHT22;67256;51.154;4.164;2023-11-18T00:50:07;10.10;93.70
76293;DHT22;67256;51.154;4.164;2023-11-18T00:52:34;10.10;93.40
76293;DHT22;67256;51.154;4.164;2023-11-18T00:55:00;10.10;93.40
76293;DHT22;67256;51.154;4.164;2023-11-18T00:57:27;10.10;93.30
76293;DHT22;67256;51.154;4.164;2023-11-18T00:59:53;10.10;93.40
76293;DHT22;67256;51.154;4.164;2023-11-18T01:02:19;10.10;93.40
76293;DHT22;67256;51.154;4.164;2023-11-18T01:04:45;10.10;93.40
76293;DHT22;67256;51.154;4.164;2023-11-18T01:07:11;10.10;93.50
76293;DHT22;67256;51.154;4.164;2023-11-18T01:09:38;10.00;93.40
76293;DHT22;67256;51.154;4.164;2023-11-18T01:12:05;10.10;93.40
76293;DHT22;67256;51.154;4.164;2023-11-18T01:14:33;10.10;93.50
76293;DHT22;67256;51.154;4.164;2023-11-18T01:17:00;10.10;93.50
76293;DHT22;67256;51.154;4.164;2023-11-18T01:19:25;10.10;93.40
76293;DHT22;67256;51.154;4.164;2023-11-18T01:21:51;10.10;93.50
76293;DHT22;67256;51.154;4.164;2023-11-18T01:24:18;10.10;93.30
76293;DHT22;67256;51.154;4.164;2023-11-18T01:26:44;10.10;93.30
76293;DHT22;67256;51.154;4.164;2023-11-18T01:29:11;10.10;93.50
76293;DHT22;67256;51.154;4.164;2023-11-18T01:31:37;10.10;93.40
76293;DHT22;67256;51.154;4.164;2023-11-18T01:34:02;10.10;93.40
76293;DHT22;67256;51.154;4.164;2023-11-18T01:36:29;10.00;93.20
76293;DHT22;67256;51.154;4.164;2023-11-18T01:38:56;10.10;93.40
76293;DHT22;67256;51.154;4.164;2023-11-18T01:41:22;10.10;93.40
76293;DHT22;67256;51.154;4.164;2023-11-18T01:43:48;10.00;93.70
76293;DHT22;67256;51.154;4.164;2023-11-18T01:46:16;10.00;93.60
76293;DHT22;67256;51.154;4.164;2023-11-18T01:48:42;10.00;93.40
76293;DHT22;67256;51.154;4.164;2023-11-18T01:51:09;10.00;93.60
76293;DHT22;67256;51.154;4.164;2023-11-18T01:53:38;10.00;93.50
76293;DHT22;67256;51.154;4.164;2023-11-18T01:56:06;10.00;93.70
76293;DHT22;67256;51.154;4.164;2023-11-18T01:58:34;10.00;93.60
76293;DHT22;67256;51.154;4.164;2023-11-18T02:01:02;9.90;93.70
76293;DHT22;67256;51.154;4.164;2023-11-18T02:03:29;9.90;93.70
76293;DHT22;67256;51.154;4.164;2023-11-18T02:05:56;9.90;93.70
76293;DHT22;67256;51.154;4.164;2023-11-18T02:08:22;10.00;93.70
76293;DHT22;67256;51.154;4.164;2023-11-18T02:10:57;10.00;93.50
76293;DHT22;67256;51.154;4.164;2023-11-18T02:13:26;10.00;93.50
76293;DHT22;67256;51.154;4.164;2023-11-18T02:15:53;10.00;93.50
76293;DHT22;67256;51.154;4.164;2023-11-18T02:18:20;10.00;93.40
76293;DHT22;67256;51.154;4.164;2023-11-18T02:20:47;10.00;93.40
76293;DHT22;67256;51.154;4.164;2023-11-18T02:23:15;10.00;93.50
76293;DHT22;67256;51.154;4.164;2023-11-18T02:25:46;10.10;93.40
76293;DHT22;67256;51.154;4.164;2023-11-18T02:28:13;10.10;93.40
76293;DHT22;67256;51.154;4.164;2023-11-18T02:30:40;10.00;93.40
76293;DHT22;67256;51.154;4.164;2023-11-18T02:33:19;10.10;93.40
76293;DHT22;67256;51.154;4.164;2023-11-18T02:35:55;10.00;93.40
76293;DHT22;67256;51.154;4.164;2023-11-18T02:38:27;10.00;93.60
76293;DHT22;67256;51.154;4.164;2023-11-18T02:40:56;10.00;93.70
76293;DHT22;67256;51.154;4.164;2023-11-18T02:43:24;10.00;93.60
76293;DHT22;67256;51.154;4.164;2023-11-18T02:45:54;10.10;93.60
76293;DHT22;67256;51.154;4.164;2023-11-18T02:48:22;10.10;93.60
76293;DHT22;67256;51.154;4.164;2023-11-18T02:50:49;10.10;93.50
76293;DHT22;67256;51.154;4.164;2023-11-18T02:53:15;10.10;93.50
76293;DHT22;67256;51.154;4.164;2023-11-18T02:55:41;10.10;93.50
76293;DHT22;67256;51.154;4.164;2023-11-18T02:58:06;10.10;93.30
76293;DHT22;67256;51.154;4.164;2023-11-18T03:00:33;10.00;93.30
76293;DHT22;67256;51.154;4.164;2023-11-18T03:02:59;10.00;93.40
76293;DHT22;67256;51.154;4.164;2023-11-18T03:05:25;10.00;93.30
76293;DHT22;67256;51.154;4.164;2023-11-18T03:07:51;10.00;93.30
76293;DHT22;67256;51.154;4.164;2023-11-18T03:10:20;10.00;93.30
76293;DHT22;67256;51.154;4.164;2023-11-18T03:12:51;9.90;93.30
76293;DHT22;67256;51.154;4.164;2023-11-18T03:15:18;10.00;93.30
76293;DHT22;67256;51.154;4.164;2023-11-18T03:17:45;10.00;93.30
76293;DHT22;67256;51.154;4.164;2023-11-18T03:20:16;10.00;93.20
76293;DHT22;67256;51.154;4.164;2023-11-18T03:22:47;10.00;93.20
76293;DHT22;67256;51.154;4.164;2023-11-18T03:25:13;10.10;93.30
76293;DHT22;67256;51.154;4.164;2023-11-18T03:27:39;10.10;93.30
76293;DHT22;67256;51.154;4.164;2023-11-18T03:30:06;10.00;93.30
76293;DHT22;67256;51.154;4.164;2023-11-18T03:32:37;10.10;93.40
76293;DHT22;67256;51.154;4.164;2023-11-18T03:35:04;10.00;93.20
76293;DHT22;67256;51.154;4.164;2023-11-18T03:37:37;10.10;93.40
76293;DHT22;67256;51.154;4.164;2023-11-18T03:40:11;10.10;93.30
76293;DHT22;67256;51.154;4.164;2023-11-18T03:42:38;10.10;93.20
76293;DHT22;67256;51.154;4.164;2023-11-18T03:45:05;10.10;93.30
76293;DHT22;67256;51.154;4.164;2023-11-18T03:47:31;10.10;93.20
76293;DHT22;67256;51.154;4.164;2023-11-18T03:49:59;10.10;93.30
76293;DHT22;67256;51.154;4.164;2023-11-18T03:52:25;10.10;93.30
76293;DHT22;67256;51.154;4.164;2023-11-18T03:54:51;10.10;93.20
76293;DHT22;67256;51.154;4.164;2023-11-18T03:57:17;10.10;93.40
76293;DHT22;67256;51.154;4.164;2023-11-18T03:59:42;10.10;93.40
76293;DHT22;67256;51.154;4.164;2023-11-18T04:02:09;10.10;93.50
76293;DHT22;67256;51.154;4.164;2023-11-18T04:04:37;10.10;93.50
76293;DHT22;67256;51.154;4.164;2023-11-18T04:07:03;10.10;93.50
76293;DHT22;67256;51.154;4.164;2023-11-18T04:09:30;10.10;93.40
76293;DHT22;67256;51.154;4.164;2023-11-18T04:11:55;10.10;93.50
76293;DHT22;67256;51.154;4.164;2023-11-18T04:14:21;10.10;93.50
76293;DHT22;67256;51.154;4.164;2023-11-18T04:16:48;10.00;93.50
76293;DHT22;67256;51.154;4.164;2023-11-18T04:19:15;10.10;93.70
76293;DHT22;67256;51.154;4.164;2023-11-18T04:21:41;10.10;93.60
76293;DHT22;67256;51.154;4.164;2023-11-18T04:24:07;10.00;93.70
76293;DHT22;67256;51.154;4.164;2023-11-18T04:26:33;10.10;93.60
76293;DHT22;67256;51.154;4.164;2023-11-18T04:28:59;10.00;93.70
76293;DHT22;67256;51.154;4.164;2023-11-18T04:31:25;10.10;93.60
76293;DHT22;67256;51.154;4.164;2023-11-18T04:33:51;10.10;93.50
76293;DHT22;67256;51.154;4.164;2023-11-18T04:36:17;10.10;93.50
76293;DHT22;67256;51.154;4.164;2023-11-18T04:38:44;10.10;93.70
76293;DHT22;67256;51.154;4.164;2023-11-18T04:41:10;10.10;93.60
76293;DHT22;67256;51.154;4.164;2023-11-18T04:43:36;10.10;93.60
76293;DHT22;67256;51.154;4.164;2023-11-18T04:46:05;10.10;93.50
76293;DHT22;67256;51.154;4.164;2023-11-18T04:48:31;10.10;93.60
76293;DHT22;67256;51.154;4.164;2023-11-18T04:50:58;10.10;93.60
76293;DHT22;67256;51.154;4.164;2023-11-18T04:53:24;10.10;93.70
76293;DHT22;67256;51.154;4.164;2023-11-18T04:55:51;10.20;93.60
76293;DHT22;67256;51.154;4.164;2023-11-18T04:58:16;10.20;93.60
76293;DHT22;67256;51.154;4.164;2023-11-18T05:00:43;10.20;93.60
76293;DHT22;67256;51.154;4.164;2023-11-18T05:03:09;10.20;93.70
76293;DHT22;67256;51.154;4.164;2023-11-18T05:05:37;10.20;93.60
76293;DHT22;67256;51.154;4.164;2023-11-18T05:08:06;10.20;93.60
76293;DHT22;67256;51.154;4.164;2023-11-18T05:10:33;10.20;93.50
76293;DHT22;67256;51.154;4.164;2023-11-18T05:12:59;10.20;93.60
76293;DHT22;67256;51.154;4.164;2023-11-18T05:15:25;10.20;93.60
76293;DHT22;67256;51.154;4.164;2023-11-18T05:17:54;10.20;93.70
76293;DHT22;67256;51.154;4.164;2023-11-18T05:20:21;10.20;93.90
76293;DHT22;67256;51.154;4.164;2023-11-18T05:22:47;10.20;93.70
76293;DHT22;67256;51.154;4.164;2023-11-18T05:25:13;10.20;93.70
76293;DHT22;67256;51.154;4.164;2023-11-18T05:27:40;10.20;93.60
76293;DHT22;67256;51.154;4.164;2023-11-18T05:30:09;10.30;93.70
76293;DHT22;67256;51.154;4.164;2023-11-18T05:32:35;10.30;93.70
76293;DHT22;67256;51.154;4.164;2023-11-18T05:35:02;10.30;93.80
76293;DHT22;67256;51.154;4.164;2023-11-18T05:37:31;10.30;93.60
76293;DHT22;67256;51.154;4.164;2023-11-18T05:40:04;10.30;93.70
76293;DHT22;67256;51.154;4.164;2023-11-18T05:42:35;10.30;93.70
76293;DHT22;67256;51.154;4.164;2023-11-18T05:45:03;10.30;93.60
76293;DHT22;67256;51.154;4.164;2023-11-18T05:47:30;10.30;93.70
76293;DHT22;67256;51.154;4.164;2023-11-18T05:49:56;10.30;93.80
76293;DHT22;67256;51.154;4.164;2023-11-18T05:52:23;10.30;93.80
76293;DHT22;67256;51.154;4.164;2023-11-18T05:54:49;10.30;93.70
76293;DHT22;67256;51.154;4.164;2023-11-18T05:57:18;10.40;93.80
76293;DHT22;67256;51.154;4.164;2023-11-18T05:59:44;10.40;93.70
76293;DHT22;67256;51.154;4.164;2023-11-18T06:02:14;10.30;93.80
76293;DHT22;67256;51.154;4.164;2023-11-18T06:04:44;10.30;93.90
76293;DHT22;67256;51.154;4.164;2023-11-18T06:07:10;10.30;93.90
76293;DHT22;67256;51.154;4.164;2023-11-18T06:09:43;10.40;93.90
76293;DHT22;67256;51.154;4.164;2023-11-18T06:12:09;10.30;93.80
76293;DHT22;67256;51.154;4.164;2023-11-18T06:14:37;10.30;94.10
76293;DHT22;67256;51.154;4.164;2023-11-18T06:17:03;10.30;94.00
76293;DHT22;67256;51.154;4.164;2023-11-18T06:19:29;10.40;93.90
76293;DHT22;67256;51.154;4.164;2023-11-18T06:21:55;10.40;94.00
76293;DHT22;67256;51.154;4.164;2023-11-18T06:24:21;10.30;94.00
76293;DHT22;67256;51.154;4.164;2023-11-18T06:26:47;10.30;94.10
76293;DHT22;67256;51.154;4.164;2023-11-18T06:29:15;10.30;94.10
76293;DHT22;67256;51.154;4.164;2023-11-18T06:31:41;10.30;94.10
76293;DHT22;67256;51.154;4.164;2023-11-18T06:34:08;10.30;94.20
76293;DHT22;67256;51.154;4.164;2023-11-18T06:36:34;10.40;94.00
76293;DHT22;67256;51.154;4.164;2023-11-18T06:39:00;10.40;94.00
76293;DHT22;67256;51.154;4.164;2023-11-18T06:41:26;10.40;94.10
76293;DHT22;67256;51.154;4.164;2023-11-18T06:44:00;10.40;94.20
76293;DHT22;67256;51.154;4.164;2023-11-18T06:46:34;10.40;94.10
76293;DHT22;67256;51.154;4.164;2023-11-18T06:49:03;10.40;94.00
76293;DHT22;67256;51.154;4.164;2023-11-18T06:51:41;10.30;94.30
76293;DHT22;67256;51.154;4.164;2023-11-18T06:54:07;10.40;94.10
76293;DHT22;67256;51.154;4.164;2023-11-18T06:56:41;10.40;94.40
76293;DHT22;67256;51.154;4.164;2023-11-18T06:59:13;10.40;94.30
76293;DHT22;67256;51.154;4.164;2023-11-18T07:01:40;10.40;94.30
76293;DHT22;67256;51.154;4.164;2023-11-18T07:04:09;10.30;94.70
76293;DHT22;67256;51.154;4.164;2023-11-18T07:06:35;10.30;94.60
76293;DHT22;67256;51.154;4.164;2023-11-18T07:09:07;10.30;94.60
76293;DHT22;67256;51.154;4.164;2023-11-18T07:11:42;10.40;94.60
76293;DHT22;67256;51.154;4.164;2023-11-18T07:14:09;10.40;94.50
76293;DHT22;67256;51.154;4.164;2023-11-18T07:16:37;10.40;94.40
76293;DHT22;67256;51.154;4.164;2023-11-18T07:19:03;10.40;94.60
76293;DHT22;67256;51.154;4.164;2023-11-18T07:21:31;10.50;94.60
76293;DHT22;67256;51.154;4.164;2023-11-18T07:23:59;10.50;94.70
76293;DHT22;67256;51.154;4.164;2023-11-18T07:26:25;10.50;94.70
76293;DHT22;67256;51.154;4.164;2023-11-18T07:28:51;10.60;94.70
76293;DHT22;67256;51.154;4.164;2023-11-18T07:31:17;10.50;94.70
76293;DHT22;67256;51.154;4.164;2023-11-18T07:33:45;10.50;94.90
76293;DHT22;67256;51.154;4.164;2023-11-18T07:36:15;10.60;94.90
76293;DHT22;67256;51.154;4.164;2023-11-18T07:38:41;10.60;94.90
76293;DHT22;67256;51.154;4.164;2023-11-18T07:41:07;10.60;95.00
76293;DHT22;67256;51.154;4.164;2023-11-18T07:43:34;10.60;95.00
76293;DHT22;67256;51.154;4.164;2023-11-18T07:46:05;10.60;95.00
76293;DHT22;67256;51.154;4.164;2023-11-18T07:48:33;10.70;95.00
76293;DHT22;67256;51.154;4.164;2023-11-18T07:51:00;10.60;95.40
76293;DHT22;67256;51.154;4.164;2023-11-18T07:53:27;10.60;95.20
76293;DHT22;67256;51.154;4.164;2023-11-18T07:55:55;10.50;95.50
76293;DHT22;67256;51.154;4.164;2023-11-18T07:58:21;10.50;95.60
76293;DHT22;67256;51.154;4.164;2023-11-18T08:00:48;10.50;95.90
76293;DHT22;67256;51.154;4.164;2023-11-18T08:03:15;10.50;95.80
76293;DHT22;67256;51.154;4.164;2023-11-18T08:05:42;10.50;95.90
76293;DHT22;67256;51.154;4.164;2023-11-18T08:08:12;10.50;95.90
76293;DHT22;67256;51.154;4.164;2023-11-18T08:10:39;10.60;95.80
76293;DHT22;67256;51.154;4.164;2023-11-18T08:13:06;10.60;95.90
76293;DHT22;67256;51.154;4.164;2023-11-18T08:15:34;10.50;96.10
76293;DHT22;67256;51.154;4.164;2023-11-18T08:18:01;10.50;96.10
76293;DHT22;67256;51.154;4.164;2023-11-18T08:20:28;10.60;96.20
76293;DHT22;67256;51.154;4.164;2023-11-18T08:22:54;10.60;96.20
76293;DHT22;67256;51.154;4.164;2023-11-18T08:25:20;10.50;96.20
76293;DHT22;67256;51.154;4.164;2023-11-18T08:27:47;10.50;96.40
76293;DHT22;67256;51.154;4.164;2023-11-18T08:30:13;10.60;96.50
76293;DHT22;67256;51.154;4.164;2023-11-18T08:32:41;10.60;96.50
76293;DHT22;67256;51.154;4.164;2023-11-18T08:35:13;10.50;96.50
76293;DHT22;67256;51.154;4.164;2023-11-18T08:37:40;10.60;96.60
76293;DHT22;67256;51.154;4.164;2023-11-18T08:40:08;10.60;96.50
76293;DHT22;67256;51.154;4.164;2023-11-18T08:42:44;10.70;96.60
76293;DHT22;67256;51.154;4.164;2023-11-18T08:45:21;10.60;96.60
76293;DHT22;67256;51.154;4.164;2023-11-18T08:47:47;10.60;97.10
76293;DHT22;67256;51.154;4.164;2023-11-18T08:50:15;10.50;96.90
76293;DHT22;67256;51.154;4.164;2023-11-18T08:52:45;10.50;97.10
76293;DHT22;67256;51.154;4.164;2023-11-18T08:55:13;10.50;97.20
76293;DHT22;67256;51.154;4.164;2023-11-18T08:57:47;10.50;97.10
76293;DHT22;67256;51.154;4.164;2023-11-18T09:00:26;10.60;97.30
76293;DHT22;67256;51.154;4.164;2023-11-18T09:03:13;10.60;97.20
76293;DHT22;67256;51.154;4.164;2023-11-18T09:06:02;10.40;97.50
76293;DHT22;67256;51.154;4.164;2023-11-18T09:08:35;10.60;97.50
76293;DHT22;67256;51.154;4.164;2023-11-18T09:11:02;10.60;97.50
76293;DHT22;67256;51.154;4.164;2023-11-18T09:13:30;10.40;97.80
76293;DHT22;67256;51.154;4.164;2023-11-18T09:16:02;10.30;98.30
76293;DHT22;67256;51.154;4.164;2023-11-18T09:18:29;10.40;98.30
76293;DHT22;67256;51.154;4.164;2023-11-18T09:20:59;10.50;98.30
76293;DHT22;67256;51.154;4.164;2023-11-18T09:23:27;10.60;98.10
76293;DHT22;67256;51.154;4.164;2023-11-18T09:25:53;10.50;98.10
76293;DHT22;67256;51.154;4.164;2023-11-18T09:28:21;10.50;98.30
76293;DHT22;67256;51.154;4.164;2023-11-18T09:30:48;10.50;98.60
76293;DHT22;67256;51.154;4.164;2023-11-18T09:33:24;10.40;98.70
76293;DHT22;67256;51.154;4.164;2023-11-18T09:36:02;10.40;99.00
76293;DHT22;67256;51.154;4.164;2023-11-18T09:38:30;10.30;99.20
76293;DHT22;67256;51.154;4.164;2023-11-18T09:40:58;10.30;99.00
76293;DHT22;67256;51.154;4.164;2023-11-18T09:43:39;10.30;99.20
76293;DHT22;67256;51.154;4.164;2023-11-18T09:46:14;10.50;99.00
76293;DHT22;67256;51.154;4.164;2023-11-18T09:48:44;10.50;98.80
76293;DHT22;67256;51.154;4.164;2023-11-18T09:51:23;10.50;98.90
76293;DHT22;67256;51.154;4.164;2023-11-18T09:53:53;10.50;98.80
76293;DHT22;67256;51.154;4.164;2023-11-18T09:59:37;10.50;98.70
76293;DHT22;67256;51.154;4.164;2023-11-18T10:02:09;10.50;98.90
76293;DHT22;67256;51.154;4.164;2023-11-18T10:04:37;10.30;99.40
76293;DHT22;67256;51.154;4.164;2023-11-18T10:07:06;10.30;99.70
76293;DHT22;67256;51.154;4.164;2023-11-18T10:09:36;10.30;99.50
76293;DHT22;67256;51.154;4.164;2023-11-18T10:12:07;10.30;99.50
76293;DHT22;67256;51.154;4.164;2023-11-18T10:17:06;10.30;99.70
76293;DHT22;67256;51.154;4.164;2023-11-18T10:22:22;10.20;99.90
76293;DHT22;67256;51.154;4.164;2023-11-18T10:24:49;10.20;99.90
76293;DHT22;67256;51.154;4.164;2023-11-18T10:27:23;10.40;99.90
76293;DHT22;67256;51.154;4.164;2023-11-18T10:29:54;10.30;99.80
76293;DHT22;67256;51.154;4.164;2023-11-18T10:32:20;10.30;99.70
76293;DHT22;67256;51.154;4.164;2023-11-18T10:34:48;10.30;99.90
76293;DHT22;67256;51.154;4.164;2023-11-18T10:37:17;10.30;99.90
76293;DHT22;67256;51.154;4.164;2023-11-18T10:39:47;10.30;99.80
76293;DHT22;67256;51.154;4.164;2023-11-18T10:42:20;10.40;99.90
76293;DHT22;67256;51.154;4.164;2023-11-18T10:44:58;10.40;99.80
76293;DHT22;67256;51.154;4.164;2023-11-18T10:47:27;10.30;99.90
76293;DHT22;67256;51.154;4.164;2023-11-18T10:49:57;10.30;99.90
76293;DHT22;67256;51.154;4.164;2023-11-18T10:52:26;10.30;99.90
76293;DHT22;67256;51.154;4.164;2023-11-18T10:54:56;10.30;99.90
76293;DHT22;67256;51.154;4.164;2023-11-18T10:57:22;10.30;99.90
76293;DHT22;67256;51.154;4.164;2023-11-18T11:00:05;10.30;99.90
76293;DHT22;67256;51.154;4.164;2023-11-18T11:02:40;10.30;99.90
76293;DHT22;67256;51.154;4.164;2023-11-18T11:05:07;10.40;99.90
76293;DHT22;67256;51.154;4.164;2023-11-18T11:07:33;10.40;99.90
76293;DHT22;67256;51.154;4.164;2023-11-18T11:10:01;10.40;99.90
76293;DHT22;67256;51.154;4.164;2023-11-18T11:12:35;10.40;99.90
76293;DHT22;67256;51.154;4.164;2023-11-18T11:15:10;10.30;99.90
76293;DHT22;67256;51.154;4.164;2023-11-18T11:17:43;10.30;99.90
76293;DHT22;67256;51.154;4.164;2023-11-18T11:20:13;10.30;99.90
76293;DHT22;67256;51.154;4.164;2023-11-18T11:25:57;10.40;99.90
76293;DHT22;67256;51.154;4.164;2023-11-18T11:31:38;10.50;99.90
76293;DHT22;67256;51.154;4.164;2023-11-18T11:34:20;10.60;99.90
76293;DHT22;67256;51.154;4.164;2023-11-18T11:36:50;10.60;99.90
76293;DHT22;67256;51.154;4.164;2023-11-18T11:39:18;10.60;99.90
76293;DHT22;67256;51.154;4.164;2023-11-18T11:41:52;10.70;99.90
76293;DHT22;67256;51.154;4.164;2023-11-18T11:44:20;10.70;99.90
76293;DHT22;67256;51.154;4.164;2023-11-18T11:46:49;10.70;99.90
76293;DHT22;67256;51.154;4.164;2023-11-18T11:49:20;10.70;99.90
76293;DHT22;67256;51.154;4.164;2023-11-18T11:52:04;10.50;99.90
76293;DHT22;67256;51.154;4.164;2023-11-18T11:54:55;10.60;99.90
76293;DHT22;67256;51.154;4.164;2023-11-18T11:57:24;10.60;99.90
76293;DHT22;67256;51.154;4.164;2023-11-18T12:02:25;10.60;99.90
76293;DHT22;67256;51.154;4.164;2023-11-18T12:04:57;10.60;99.90
76293;DHT22;67256;51.154;4.164;2023-11-18T12:07:28;10.60;99.90
76293;DHT22;67256;51.154;4.164;2023-11-18T12:10:00;10.60;99.90
76293;DHT22;67256;51.154;4.164;2023-11-18T12:12:27;10.50;99.90
76293;DHT22;67256;51.154;4.164;2023-11-18T12:14:59;10.60;99.90
76293;DHT22;67256;51.154;4.164;2023-11-18T12:20:43;10.60;99.90
76293;DHT22;67256;51.154;4.164;2023-11-18T12:23:35;10.60;99.90
76293;DHT22;67256;51.154;4.164;2023-11-18T12:26:02;10.50;99.90
76293;DHT22;67256;51.154;4.164;2023-11-18T12:28:34;10.60;99.90
76293;DHT22;67256;51.154;4.164;2023-11-18T12:31:01;10.60;99.90
76293;DHT22;67256;51.154;4.164;2023-11-18T12:42:03;10.50;99.90
76293;DHT22;67256;51.154;4.164;2023-11-18T12:44:37;10.50;99.90
76293;DHT22;67256;51.154;4.164;2023-11-18T12:47:06;10.50;99.90
76293;DHT22;67256;51.154;4.164;2023-11-18T12:49:44;10.50;99.90
76293;DHT22;67256;51.154;4.164;2023-11-18T12:52:16;10.70;99.90
76293;DHT22;67256;51.154;4.164;2023-11-18T12:54:44;10.60;99.90
76293;DHT22;67256;51.154;4.164;2023-11-18T12:57:19;10.60;99.90
76293;DHT22;67256;51.154;4.164;2023-11-18T12:59:48;10.70;99.90
76293;DHT22;67256;51.154;4.164;2023-11-18T13:02:15;10.80;99.90
76293;DHT22;67256;51.154;4.164;2023-11-18T13:04:48;10.80;99.90
76293;DHT22;67256;51.154;4.164;2023-11-18T13:07:17;10.60;99.90
76293;DHT22;67256;51.154;4.164;2023-11-18T13:09:44;10.60;99.90
76293;DHT22;67256;51.154;4.164;2023-11-18T13:12:11;10.60;99.90
76293;DHT22;67256;51.154;4.164;2023-11-18T13:14:41;10.60;99.90
76293;DHT22;67256;51.154;4.164;2023-11-18T13:17:12;10.50;99.90
76293;DHT22;67256;51.154;4.164;2023-11-18T13:19:39;10.50;99.90
76293;DHT22;67256;51.154;4.164;2023-11-18T13:22:08;10.70;99.90
76293;DHT22;67256;51.154;4.164;2023-11-18T13:24:35;10.60;99.90
76293;DHT22;67256;51.154;4.164;2023-11-18T13:27:02;10.70;99.90
76293;DHT22;67256;51.154;4.164;2023-11-18T13:29:32;10.70;99.90
76293;DHT22;67256;51.154;4.164;2023-11-18T13:32:00;10.80;99.90
76293;DHT22;67256;51.154;4.164;2023-11-18T13:34:32;10.80;99.90
76293;DHT22;67256;51.154;4.164;2023-11-18T13:37:00;10.80;99.90
76293;DHT22;67256;51.154;4.164;2023-11-18T13:39:26;10.80;99.90
76293;DHT22;67256;51.154;4.164;2023-11-18T13:41:57;10.80;99.90
76293;DHT22;67256;51.154;4.164;2023-11-18T13:44:35;10.80;99.90
76293;DHT22;67256;51.154;4.164;2023-11-18T13:47:05;10.90;99.90
76293;DHT22;67256;51.154;4.164;2023-11-18T13:49:34;10.90;99.90
76293;DHT22;67256;51.154;4.164;2023-11-18T13:52:00;10.80;99.90
76293;DHT22;67256;51.154;4.164;2023-11-18T13:54:29;10.80;99.90
76293;DHT22;67256;51.154;4.164;2023-11-18T13:56:58;10.80;99.90
76293;DHT22;67256;51.154;4.164;2023-11-18T13:59:25;11.00;99.90
76293;DHT22;67256;51.154;4.164;2023-11-18T14:01:54;10.90;99.90
76293;DHT22;67256;51.154;4.164;2023-11-18T14:04:27;11.00;99.90
76293;DHT22;67256;51.154;4.164;2023-11-18T14:06:57;11.10;99.90
76293;DHT22;67256;51.154;4.164;2023-11-18T14:09:23;10.90;99.90
76293;DHT22;67256;51.154;4.164;2023-11-18T14:11:54;10.90;99.90
76293;DHT22;67256;51.154;4.164;2023-11-18T14:14:23;10.90;99.90
76293;DHT22;67256;51.154;4.164;2023-11-18T14:16:51;10.90;99.90
76293;DHT22;67256;51.154;4.164;2023-11-18T14:19:19;10.90;99.90
76293;DHT22;67256;51.154;4.164;2023-11-18T14:21:45;11.00;99.90
76293;DHT22;67256;51.154;4.164;2023-11-18T14:24:11;11.00;99.90
76293;DHT22;67256;51.154;4.164;2023-11-18T14:26:40;10.90;99.90
76293;DHT22;67256;51.154;4.164;2023-11-18T14:29:07;11.00;99.90
76293;DHT22;67256;51.154;4.164;2023-11-18T14:31:36;10.80;99.90
76293;DHT22;67256;51.154;4.164;2023-11-18T14:34:02;11.00;99.90
76293;DHT22;67256;51.154;4.164;2023-11-18T14:36:28;11.00;99.90
76293;DHT22;67256;51.154;4.164;2023-11-18T14:38:54;11.00;99.90
76293;DHT22;67256;51.154;4.164;2023-11-18T14:41:20;11.00;99.90
76293;DHT22;67256;51.154;4.164;2023-11-18T14:43:51;11.10;99.90
76293;DHT22;67256;51.154;4.164;2023-11-18T14:46:17;11.10;99.90
76293;DHT22;67256;51.154;4.164;2023-11-18T14:48:44;11.10;99.90
76293;DHT22;67256;51.154;4.164;2023-11-18T14:51:10;11.10;99.90
76293;DHT22;67256;51.154;4.164;2023-11-18T14:53:36;11.10;99.90
76293;DHT22;67256;51.154;4.164;2023-11-18T14:56:03;11.20;99.90
76293;DHT22;67256;51.154;4.164;2023-11-18T14:58:31;11.20;99.90
76293;DHT22;67256;51.154;4.164;2023-11-18T15:00:59;11.20;99.90
76293;DHT22;67256;51.154;4.164;2023-11-18T15:03:26;11.20;99.90
76293;DHT22;67256;51.154;4.164;2023-11-18T15:05:51;11.20;99.90
76293;DHT22;67256;51.154;4.164;2023-11-18T15:08:17;11.20;99.90
76293;DHT22;67256;51.154;4.164;2023-11-18T15:10:43;11.20;99.90
76293;DHT22;67256;51.154;4.164;2023-11-18T15:13:10;11.20;99.90
76293;DHT22;67256;51.154;4.164;2023-11-18T15:15:43;11.30;99.90
76293;DHT22;67256;51.154;4.164;2023-11-18T15:18:13;11.30;99.90
76293;DHT22;67256;51.154;4.164;2023-11-18T15:20:40;11.40;99.90
76293;DHT22;67256;51.154;4.164;2023-11-18T15:23:12;11.40;99.90
76293;DHT22;67256;51.154;4.164;2023-11-18T15:25:39;11.30;99.90
76293;DHT22;67256;51.154;4.164;2023-11-18T15:28:06;11.40;99.90
76293;DHT22;67256;51.154;4.164;2023-11-18T15:30:39;11.50;99.90
76293;DHT22;67256;51.154;4.164;2023-11-18T15:33:05;11.50;99.90
76293;DHT22;67256;51.154;4.164;2023-11-18T15:35:34;11.50;99.90
76293;DHT22;67256;51.154;4.164;2023-11-18T15:38:11;11.40;99.90
76293;DHT22;67256;51.154;4.164;2023-11-18T15:40:42;11.40;99.90
76293;DHT22;67256;51.154;4.164;2023-11-18T15:43:08;11.30;99.90
76293;DHT22;67256;51.154;4.164;2023-11-18T15:45:37;11.40;99.90
76293;DHT22;67256;51.154;4.164;2023-11-18T15:48:03;11.30;99.90
76293;DHT22;67256;51.154;4.164;2023-11-18T15:50:36;11.30;99.90
76293;DHT22;67256;51.154;4.164;2023-11-18T15:53:03;11.30;99.90
76293;DHT22;67256;51.154;4.164;2023-11-18T15:55:31;11.30;99.90
76293;DHT22;67256;51.154;4.164;2023-11-18T15:57:57;11.40;99.90
76293;DHT22;67256;51.154;4.164;2023-11-18T16:00:26;11.50;99.90
76293;DHT22;67256;51.154;4.164;2023-11-18T16:02:56;11.50;99.90
76293;DHT22;67256;51.154;4.164;2023-11-18T16:05:24;11.50;99.90
76293;DHT22;67256;51.154;4.164;2023-11-18T16:07:51;11.40;99.90